Time;durP1;ratioP1;P1;durP2;ratioP2;P2;SDS_P1;SDS_P2;PMS_P1;PMS_P2;Temp;Humidity;BMP_temperature;BMP_pressure;BME280_temperature;BME280_humidity;BME280_pressure;Samples;Min_cycle;Max_cycle;Signal;HPM_P1;HPM_P2
2021/06/23 00:01:55;;;;;;;7.77;3.90;;;;;;;16.44;85.53;96591.47;3575336;39;21091;-73
2021/06/23 00:04:24;;;;;;;7.87;4.70;;;;;;;16.43;85.30;96595.09;3575480;39;20514;-73
2021/06/23 00:06:52;;;;;;;8.57;4.47;;;;;;;16.38;85.22;96603.44;3576407;39;20433;-73
2021/06/23 00:09:20;;;;;;;6.90;5.23;;;;;;;16.26;85.97;96613.31;3577591;39;21114;-74
2021/06/23 00:11:52;;;;;;;5.30;4.50;;;;;;;15.94;87.29;96611.81;3579537;39;20615;-73
2021/06/23 00:14:22;;;;;;;5.43;4.20;;;;;;;16.20;86.22;96620.00;3579728;39;20453;-73
2021/06/23 00:16:50;;;;;;;10.17;4.50;;;;;;;16.32;86.35;96622.50;3578271;40;20768;-73
2021/06/23 00:19:19;;;;;;;13.00;4.90;;;;;;;16.40;85.96;96627.91;3578215;39;20479;-73
2021/06/23 00:21:48;;;;;;;5.17;4.67;;;;;;;16.44;85.33;96625.84;3579411;39;20437;-73
2021/06/23 00:24:16;;;;;;;9.63;5.47;;;;;;;16.44;85.88;96623.19;3577360;39;20473;-73
2021/06/23 00:26:44;;;;;;;8.87;5.00;;;;;;;16.40;85.86;96626.09;3578433;39;20429;-73
2021/06/23 00:29:12;;;;;;;5.40;4.90;;;;;;;16.39;86.46;96624.44;3577906;39;20528;-73
2021/06/23 00:31:40;;;;;;;11.53;4.53;;;;;;;16.45;86.57;96632.81;3577569;39;20818;-73
2021/06/23 00:34:11;;;;;;;9.13;4.87;;;;;;;16.42;86.22;96628.59;3577283;39;20826;-73
2021/06/23 00:36:39;;;;;;;9.33;4.37;;;;;;;16.37;86.43;96618.47;3576059;40;20739;-74
2021/06/23 00:39:08;;;;;;;10.60;5.40;;;;;;;16.20;86.91;96606.78;3578419;39;20512;-73
2021/06/23 00:41:37;;;;;;;6.03;5.27;;;;;;;16.18;87.79;96616.66;3580260;39;20434;-73
2021/06/23 00:44:06;;;;;;;7.03;4.23;;;;;;;16.30;87.70;96624.47;3577133;39;20445;-74
2021/06/23 00:46:34;;;;;;;7.23;5.27;;;;;;;16.35;87.31;96622.25;3577620;39;20836;-72
2021/06/23 00:49:03;;;;;;;6.00;4.33;;;;;;;16.40;86.80;96623.47;3578021;39;20461;-73
2021/06/23 00:51:31;;;;;;;7.23;4.70;;;;;;;16.47;86.49;96618.47;3578850;39;20474;-74
2021/06/23 00:53:59;;;;;;;6.90;5.13;;;;;;;16.52;86.55;96618.03;3579460;39;20558;-73
2021/06/23 00:56:33;;;;;;;12.77;4.47;;;;;;;16.54;86.45;96624.84;3579340;39;20472;-73
2021/06/23 00:59:02;;;;;;;9.80;4.60;;;;;;;16.57;86.67;96624.56;3578713;39;20903;-73
2021/06/23 01:01:32;;;;;;;12.03;4.60;;;;;;;16.57;86.04;96629.00;3578585;39;20719;-73
2021/06/23 01:04:01;;;;;;;7.43;4.83;;;;;;;16.60;86.32;96615.50;3578577;39;20921;-73
2021/06/23 01:06:29;;;;;;;8.90;4.53;;;;;;;16.60;86.67;96612.84;3578336;39;20784;-73
2021/06/23 01:08:58;;;;;;;5.13;4.23;;;;;;;16.58;86.36;96613.03;3577908;39;20502;-72
2021/06/23 01:11:28;;;;;;;7.87;5.33;;;;;;;16.58;86.80;96614.81;3578385;39;21146;-72
2021/06/23 01:14:00;;;;;;;8.73;5.83;;;;;;;16.60;86.66;96620.78;3579068;39;20538;-72
2021/06/23 01:16:29;;;;;;;7.67;5.50;;;;;;;16.66;86.38;96625.53;3575622;40;20449;-72
2021/06/23 01:18:59;;;;;;;12.40;5.73;;;;;;;16.61;86.92;96622.47;3576886;39;20903;-72
2021/06/23 01:21:28;;;;;;;9.97;5.60;;;;;;;16.59;86.93;96621.78;3575389;39;21075;-72
2021/06/23 01:23:57;;;;;;;21.90;6.70;;;;;;;16.59;86.88;96616.50;3577234;39;20550;-72
2021/06/23 01:26:26;;;;;;;12.23;6.33;;;;;;;16.58;87.08;96625.38;3576047;40;20444;-73
2021/06/23 01:28:54;;;;;;;15.00;5.97;;;;;;;16.54;86.76;96618.72;3575556;39;20445;-72
2021/06/23 01:31:22;;;;;;;11.83;6.03;;;;;;;16.48;87.64;96608.72;3580135;39;20764;-72
2021/06/23 01:33:51;;;;;;;9.87;7.10;;;;;;;16.23;89.05;96618.91;3576315;39;20466;-72
2021/06/23 01:36:19;;;;;;;10.03;6.27;;;;;;;16.37;87.93;96615.81;3577305;39;20471;-72
2021/06/23 01:38:48;;;;;;;12.03;6.80;;;;;;;16.43;87.65;96611.78;3576673;39;20536;-73
2021/06/23 01:41:17;;;;;;;12.00;6.20;;;;;;;16.45;87.85;96606.38;3576292;40;20557;-73
2021/06/23 01:43:46;;;;;;;14.53;7.40;;;;;;;16.46;87.20;96605.38;3576699;39;20441;-73
2021/06/23 01:46:14;;;;;;;13.17;6.60;;;;;;;16.45;87.15;96595.81;3578668;39;20482;-73
2021/06/23 01:48:42;;;;;;;9.37;6.57;;;;;;;16.41;87.95;96593.44;3578629;39;21091;-73
2021/06/23 01:51:10;;;;;;;7.27;6.27;;;;;;;16.42;87.84;96591.59;3577436;39;20775;-73
2021/06/23 01:53:39;;;;;;;15.13;7.03;;;;;;;16.37;87.92;96592.03;3577482;39;20958;-73
2021/06/23 01:56:08;;;;;;;11.77;7.13;;;;;;;16.39;87.33;96586.63;3577485;40;20534;-75
2021/06/23 01:58:39;;;;;;;10.83;7.00;;;;;;;16.28;88.01;96589.41;3580219;39;20922;-73
2021/06/23 02:01:17;;;;;;;12.60;6.23;;;;;;;16.30;87.93;96579.53;3579825;40;20704;-73
2021/06/23 02:03:54;;;;;;;7.73;6.13;;;;;;;16.27;87.57;96571.88;3578097;39;20464;-73
2021/06/23 02:06:48;;;;;;;8.40;5.80;;;;;;;16.24;88.26;96574.81;3576869;40;20421;-72
2021/06/23 02:09:29;;;;;;;14.73;6.43;;;;;;;16.20;88.04;96579.56;3564841;39;20467;-72
2021/06/23 02:12:11;;;;;;;12.90;6.60;;;;;;;16.12;88.85;96576.78;3577910;39;20437;-72
2021/06/23 02:14:41;;;;;;;11.93;7.23;;;;;;;16.18;88.96;96577.03;3577657;39;20476;-73
2021/06/23 02:17:11;;;;;;;14.63;8.20;;;;;;;16.21;88.41;96581.22;3578410;40;20821;-73
2021/06/23 02:19:44;;;;;;;8.57;6.30;;;;;;;16.27;88.75;96578.03;3576105;39;20471;-72
2021/06/23 02:22:14;;;;;;;12.43;6.70;;;;;;;16.27;88.34;96575.38;3579254;39;20455;-72
2021/06/23 02:24:43;;;;;;;20.73;8.00;;;;;;;16.21;88.69;96573.31;3578688;39;20482;-73
2021/06/23 02:27:13;;;;;;;11.53;8.00;;;;;;;16.20;88.62;96576.91;3578071;39;20900;-73
2021/06/23 02:29:44;;;;;;;15.70;8.80;;;;;;;16.22;88.14;96569.66;3576722;39;20554;-73
2021/06/23 02:32:15;;;;;;;14.20;8.57;;;;;;;16.22;88.41;96567.03;3576672;39;20429;-73
2021/06/23 02:34:47;;;;;;;14.73;9.03;;;;;;;16.16;88.44;96557.03;3576900;39;20569;-73
2021/06/23 02:37:16;;;;;;;9.70;8.10;;;;;;;16.19;87.86;96551.44;3575618;40;20914;-72
2021/06/23 02:39:44;;;;;;;20.17;10.70;;;;;;;16.07;88.08;96550.78;3575872;39;20465;-73
2021/06/23 02:42:13;;;;;;;18.70;11.80;;;;;;;16.18;87.86;96555.91;3576302;39;20467;-72
2021/06/23 02:44:42;;;;;;;15.30;11.37;;;;;;;16.21;87.84;96554.81;3577083;39;20484;-72
2021/06/23 02:47:15;;;;;;;14.30;10.67;;;;;;;16.18;87.54;96563.84;3575829;40;21005;-73
2021/06/23 02:49:44;;;;;;;18.30;11.00;;;;;;;16.04;88.46;96563.44;3574077;39;20528;-72
2021/06/23 02:52:13;;;;;;;16.13;10.87;;;;;;;15.97;88.98;96566.63;3576467;39;20445;-73
2021/06/23 02:54:42;;;;;;;15.37;11.97;;;;;;;15.88;89.03;96583.31;3575712;39;20570;-73
2021/06/23 02:57:10;;;;;;;14.90;10.40;;;;;;;15.93;88.83;96585.53;3576807;39;20449;-73
2021/06/23 02:59:38;;;;;;;16.33;12.00;;;;;;;15.94;88.96;96597.78;3578790;39;20461;-72
2021/06/23 03:02:08;;;;;;;18.50;12.37;;;;;;;15.98;88.69;96599.16;3568020;40;20920;-73
2021/06/23 03:04:48;;;;;;;21.47;13.40;;;;;;;16.01;88.96;96607.66;3578603;39;20461;-74
2021/06/23 03:07:22;;;;;;;18.57;12.10;;;;;;;16.10;88.99;96613.91;3585134;40;20441;-72
2021/06/23 03:09:50;;;;;;;23.13;13.27;;;;;;;16.18;88.85;96613.19;3577427;39;20868;-73
2021/06/23 03:12:18;;;;;;;20.47;13.73;;;;;;;16.08;89.14;96628.22;3577992;39;20806;-73
2021/06/23 03:14:46;;;;;;;20.30;11.63;;;;;;;16.04;89.21;96625.03;3576221;39;20464;-74
2021/06/23 03:17:16;;;;;;;24.23;13.30;;;;;;;16.10;89.35;96626.28;3576135;39;20444;-74
2021/06/23 03:19:43;;;;;;;19.33;12.83;;;;;;;16.15;89.05;96618.75;3574768;39;20861;-73
2021/06/23 03:22:12;;;;;;;25.57;13.33;;;;;;;16.26;89.23;96623.91;3576175;39;20436;-73
2021/06/23 03:24:40;;;;;;;19.43;13.07;;;;;;;16.29;89.13;96615.69;3576016;39;20464;-74
2021/06/23 03:27:09;;;;;;;18.50;14.07;;;;;;;16.29;88.56;96607.78;3575672;39;20451;-74
2021/06/23 03:29:38;;;;;;;24.77;17.30;;;;;;;16.30;88.78;96616.53;3575535;39;20500;-74
2021/06/23 03:32:09;;;;;;;23.20;14.80;;;;;;;16.28;88.58;96619.31;3575789;40;20871;-73
2021/06/23 03:34:39;;;;;;;29.23;16.17;;;;;;;16.23;88.71;96616.28;3575769;39;20489;-72
2021/06/23 03:37:08;;;;;;;29.33;16.63;;;;;;;16.26;88.25;96621.25;3577258;40;20429;-73
2021/06/23 03:39:36;;;;;;;22.37;15.60;;;;;;;16.25;88.08;96622.25;3575893;39;20483;-74
2021/06/23 03:42:05;;;;;;;28.50;16.20;;;;;;;16.22;88.28;96627.78;3575455;40;20752;-74
2021/06/23 03:44:33;;;;;;;33.67;16.87;;;;;;;16.23;87.88;96625.97;3576103;39;20495;-74
2021/06/23 03:47:02;;;;;;;26.03;16.20;;;;;;;16.25;87.79;96631.97;3578624;39;20447;-74
2021/06/23 03:49:31;;;;;;;34.63;17.10;;;;;;;16.10;88.41;96635.03;3578528;39;20783;-73
2021/06/23 03:52:00;;;;;;;22.73;16.10;;;;;;;16.19;88.86;96631.56;3579626;39;20458;-75
2021/06/23 03:54:29;;;;;;;29.90;17.50;;;;;;;16.15;89.46;96632.81;3580618;39;20541;-74
2021/06/23 03:56:56;;;;;;;20.87;15.27;;;;;;;16.22;89.10;96630.44;3578566;40;20457;-74
2021/06/23 03:59:24;;;;;;;25.93;17.23;;;;;;;16.32;88.73;96628.63;3576800;39;21164;-73
2021/06/23 04:01:52;;;;;;;28.93;17.30;;;;;;;16.40;88.94;96631.38;3577086;39;20837;-74
2021/06/23 04:04:20;;;;;;;22.60;16.67;;;;;;;16.39;88.33;96627.09;3576086;39;20760;-73
2021/06/23 04:06:48;;;;;;;28.83;17.70;;;;;;;16.05;89.38;96634.59;3578048;39;20910;-73
2021/06/23 04:09:18;;;;;;;27.93;14.50;;;;;;;16.15;89.43;96635.47;3577631;39;20781;-73
2021/06/23 04:11:46;;;;;;;31.83;14.47;;;;;;;16.11;89.33;96635.84;3578212;39;20959;-73
2021/06/23 04:14:14;;;;;;;33.47;14.70;;;;;;;15.85;90.81;96640.84;3575674;39;20449;-73
2021/06/23 04:16:41;;;;;;;21.03;15.80;;;;;;;16.05;89.62;96637.25;3578624;39;20518;-74
2021/06/23 04:19:09;;;;;;;22.10;14.70;;;;;;;16.07;89.66;96637.09;3577284;39;20863;-75
2021/06/23 04:21:37;;;;;;;27.13;16.17;;;;;;;16.15;89.68;96638.09;3579030;39;20782;-77
2021/06/23 04:24:06;;;;;;;25.57;15.30;;;;;;;16.31;89.26;96648.09;3578644;39;20588;-76
2021/06/23 04:26:36;;;;;;;33.50;15.43;;;;;;;16.37;89.07;96657.28;3578797;39;20671;-75
2021/06/23 04:29:04;;;;;;;29.77;15.80;;;;;;;16.53;88.77;96664.63;3578865;39;20659;-77
2021/06/23 04:31:32;;;;;;;40.77;16.23;;;;;;;16.66;88.24;96651.97;3576603;40;20901;-76
2021/06/23 04:34:00;;;;;;;32.67;14.63;;;;;;;16.92;87.49;96656.66;3577164;39;20764;-76
2021/06/23 04:36:28;;;;;;;17.63;12.27;;;;;;;17.10;87.37;96662.03;3577536;39;20814;-75
2021/06/23 04:38:56;;;;;;;26.30;13.70;;;;;;;17.09;86.85;96658.56;3577376;39;20438;-75
2021/06/23 04:41:24;;;;;;;17.03;11.57;;;;;;;17.22;86.95;96658.22;3576493;40;20466;-74
2021/06/23 04:43:54;;;;;;;16.70;13.33;;;;;;;17.35;85.29;96663.19;3577253;39;20522;-75
2021/06/23 04:46:22;;;;;;;26.30;13.43;;;;;;;16.86;87.07;96646.66;3577202;39;20557;-75
2021/06/23 04:48:50;;;;;;;21.70;15.33;;;;;;;16.86;86.73;96654.59;3576281;39;20830;-75
2021/06/23 04:51:18;;;;;;;31.27;15.40;;;;;;;16.66;88.18;96657.25;3577571;39;21413;-75
2021/06/23 04:53:45;;;;;;;22.47;14.30;;;;;;;16.65;87.72;96660.03;3578561;39;20428;-74
2021/06/23 04:56:13;;;;;;;22.37;14.60;;;;;;;16.49;87.96;96655.31;3576721;39;20469;-74
2021/06/23 04:58:41;;;;;;;22.10;15.00;;;;;;;16.76;86.98;96658.06;3576973;39;20429;-74
2021/06/23 05:01:11;;;;;;;31.80;14.73;;;;;;;16.85;87.03;96653.75;3577361;39;20848;-74
2021/06/23 05:03:38;;;;;;;21.37;13.90;;;;;;;17.00;86.37;96656.78;3575823;39;20567;-75
2021/06/23 05:06:07;;;;;;;18.30;13.10;;;;;;;16.88;86.32;96650.81;3576692;40;20441;-75
2021/06/23 05:08:35;;;;;;;18.37;13.70;;;;;;;16.99;86.40;96655.09;3576924;39;20825;-74
2021/06/23 05:11:03;;;;;;;20.90;14.40;;;;;;;16.69;87.58;96654.31;3576344;39;20725;-74
2021/06/23 05:13:31;;;;;;;19.10;13.77;;;;;;;17.04;86.85;96666.09;3576782;39;20817;-74
2021/06/23 05:16:00;;;;;;;20.17;14.90;;;;;;;17.08;86.19;96654.25;3576199;39;20718;-74
2021/06/23 05:18:30;;;;;;;21.37;15.57;;;;;;;17.03;86.46;96664.41;3577261;39;20530;-74
2021/06/23 05:20:59;;;;;;;17.20;13.83;;;;;;;17.36;84.43;96673.63;3576181;39;20482;-74
2021/06/23 05:23:27;;;;;;;20.83;12.87;;;;;;;17.38;84.12;96668.19;3577211;39;20428;-74
2021/06/23 05:25:56;;;;;;;20.43;11.40;;;;;;;17.01;86.06;96671.66;3577105;39;20879;-74
2021/06/23 05:28:24;;;;;;;15.30;12.83;;;;;;;17.15;85.15;96678.28;3574084;40;20435;-74
2021/06/23 05:30:51;;;;;;;18.00;11.60;;;;;;;17.04;85.67;96670.56;3576093;39;21105;-74
2021/06/23 05:33:19;;;;;;;17.00;11.03;;;;;;;16.95;86.41;96674.88;3577689;39;20885;-74
2021/06/23 05:35:49;;;;;;;19.80;10.80;;;;;;;17.09;85.63;96677.09;3576434;39;20853;-74
2021/06/23 05:38:17;;;;;;;98.30;65.87;;;;;;;17.34;84.31;96685.34;3577621;39;20613;-74
2021/06/23 05:40:46;;;;;;;19.20;11.33;;;;;;;17.54;83.60;96688.72;3577285;39;20546;-74
2021/06/23 05:43:14;;;;;;;11.83;6.50;;;;;;;17.79;81.66;96689.84;3575961;40;20918;-73
2021/06/23 05:45:42;;;;;;;11.13;4.40;;;;;;;17.53;80.63;96693.19;3576879;39;20676;-73
2021/06/23 05:48:10;;;;;;;11.30;5.63;;;;;;;17.58;81.31;96690.94;3576121;40;20710;-72
2021/06/23 05:50:41;;;;;;;10.03;5.33;;;;;;;17.97;80.37;96689.91;3575512;39;20465;-73
2021/06/23 05:53:10;;;;;;;5.57;4.87;;;;;;;17.82;80.71;96696.66;3577585;40;20451;-73
2021/06/23 05:55:40;;;;;;;9.13;5.93;;;;;;;17.73;81.39;96704.50;3576723;39;20473;-72
2021/06/23 05:58:08;;;;;;;5.33;4.63;;;;;;;17.93;80.29;96699.97;3576354;39;21214;-73
2021/06/23 06:00:37;;;;;;;8.20;5.93;;;;;;;18.14;79.11;96690.94;3576171;39;20504;-74
2021/06/23 06:03:06;;;;;;;23.23;13.07;;;;;;;18.24;79.12;96707.59;3577327;39;20472;-73
2021/06/23 06:05:34;;;;;;;27.03;18.00;;;;;;;18.36;77.74;96710.84;3576612;39;21132;-73
2021/06/23 06:08:03;;;;;;;5.17;3.30;;;;;;;18.40;76.79;96709.56;3577108;40;20844;-73
2021/06/23 06:10:33;;;;;;;5.40;4.40;;;;;;;18.66;76.02;96699.03;3576197;39;20469;-73
2021/06/23 06:13:02;;;;;;;10.00;4.30;;;;;;;18.83;75.57;96709.78;3577923;39;20464;-74
2021/06/23 06:15:30;;;;;;;5.60;4.27;;;;;;;18.38;77.83;96704.44;3576735;39;21122;-73
2021/06/23 06:18:01;;;;;;;7.63;5.27;;;;;;;18.64;77.91;96706.31;3577385;40;20843;-74
2021/06/23 06:20:30;;;;;;;12.87;4.87;;;;;;;19.14;74.94;96712.81;3575972;39;20457;-73
2021/06/23 06:22:59;;;;;;;9.60;4.50;;;;;;;19.80;74.68;96706.06;3576417;40;20463;-74
2021/06/23 06:25:27;;;;;;;10.93;4.70;;;;;;;20.56;71.43;96706.84;3575750;39;20542;-73
2021/06/23 06:27:56;;;;;;;36.10;6.27;;;;;;;20.09;72.61;96710.09;3576490;39;20448;-72
2021/06/23 06:30:26;;;;;;;8.70;5.30;;;;;;;20.17;70.73;96704.84;3576006;39;20473;-73
2021/06/23 06:32:55;;;;;;;14.20;8.30;;;;;;;19.65;73.74;96710.28;3575867;40;20726;-73
2021/06/23 06:35:24;;;;;;;5.97;4.63;;;;;;;19.84;73.57;96712.69;3573704;39;20519;-73
2021/06/23 06:37:52;;;;;;;10.23;4.23;;;;;;;20.57;70.41;96708.53;3576041;39;20445;-73
2021/06/23 06:40:20;;;;;;;6.70;3.97;;;;;;;20.97;69.13;96706.88;3591855;39;20843;-74
2021/06/23 06:42:49;;;;;;;6.10;3.90;;;;;;;20.82;68.70;96708.59;3576224;39;20762;-73
2021/06/23 06:45:19;;;;;;;5.43;4.40;;;;;;;20.42;70.38;96705.69;3576144;39;20483;-73
2021/06/23 06:47:47;;;;;;;5.87;3.10;;;;;;;20.28;69.70;96715.13;3576163;39;20845;-73
2021/06/23 06:50:15;;;;;;;5.30;3.03;;;;;;;19.86;72.14;96709.91;3576487;39;20904;-73
2021/06/23 06:52:43;;;;;;;9.30;3.30;;;;;;;20.14;71.36;96713.13;3575986;39;20529;-74
2021/06/23 06:55:12;;;;;;;11.00;3.73;;;;;;;20.12;70.67;96715.13;3575514;39;20474;-74
2021/06/23 06:57:49;;;;;;;8.50;2.93;;;;;;;20.09;69.63;96710.97;3576543;39;20441;-74
2021/06/23 07:00:19;;;;;;;4.23;2.90;;;;;;;20.20;70.23;96707.16;3575212;39;20471;-74
2021/06/23 07:02:48;;;;;;;9.30;3.57;;;;;;;20.05;69.27;96719.41;3576165;39;20907;-74
2021/06/23 07:05:16;;;;;;;3.87;3.00;;;;;;;19.97;71.07;96728.19;3575231;39;20825;-74
2021/06/23 07:07:44;;;;;;;9.83;3.40;;;;;;;19.99;69.80;96736.81;3575229;39;20469;-74
2021/06/23 07:10:12;;;;;;;5.50;3.70;;;;;;;19.81;70.54;96726.31;3575897;39;20577;-73
2021/06/23 07:12:41;;;;;;;33.43;5.23;;;;;;;19.22;73.64;96733.28;3574257;40;20762;-74
2021/06/23 07:15:10;;;;;;;5.00;3.23;;;;;;;19.54;71.49;96732.63;3576633;39;20864;-74
2021/06/23 07:17:39;;;;;;;3.93;2.73;;;;;;;19.86;71.13;96731.97;3576636;39;20748;-75
2021/06/23 07:20:08;;;;;;;6.20;3.90;;;;;;;19.91;70.14;96737.63;3576801;39;20916;-74
2021/06/23 07:22:37;;;;;;;6.30;5.13;;;;;;;20.26;69.73;96733.09;3577761;39;20803;-73
2021/06/23 07:25:05;;;;;;;8.90;4.47;;;;;;;20.92;69.95;96730.53;3577177;39;20541;-73
2021/06/23 07:27:33;;;;;;;9.73;4.53;;;;;;;21.61;66.90;96733.59;3577456;39;20522;-75
2021/06/23 07:30:02;;;;;;;5.87;4.10;;;;;;;21.65;66.23;96734.06;3577085;39;20504;-74
2021/06/23 07:32:32;;;;;;;9.50;4.10;;;;;;;21.66;65.22;96741.06;3578166;39;20457;-73
2021/06/23 07:37:43;;;;;;;7.93;4.43;;;;;;;21.82;64.65;96737.53;3577607;40;20864;-75
2021/06/23 07:40:13;;;;;;;10.83;4.13;;;;;;;21.62;65.21;96734.41;3577848;39;20460;-74
2021/06/23 07:42:41;;;;;;;5.57;4.10;;;;;;;22.08;62.74;96738.06;3578437;39;20450;-73
2021/06/23 07:45:11;;;;;;;7.87;3.13;;;;;;;22.41;59.99;96734.41;3577125;39;21181;-73
2021/06/23 07:47:41;;;;;;;5.60;3.60;;;;;;;22.18;62.19;96740.50;3578899;39;20445;-74
2021/06/23 07:50:14;;;;;;;11.73;7.20;;;;;;;22.23;65.08;96745.34;3577800;39;20758;-74
2021/06/23 07:52:49;;;;;;;12.03;6.90;;;;;;;23.27;61.40;96735.91;3578211;39;20440;-73
2021/06/23 08:09:13;;;;;;;11.00;8.10;;;;;;;22.42;62.75;96741.41;3578322;39;20550;-74
2021/06/23 08:11:44;;;;;;;7.83;4.13;;;;;;;22.18;61.74;96745.84;3576707;40;20689;-74
2021/06/23 08:14:14;;;;;;;12.63;5.13;;;;;;;22.36;62.50;96752.78;3577934;39;20511;-76
2021/06/23 08:16:43;;;;;;;6.83;3.90;;;;;;;22.03;62.81;96748.44;3579451;39;20503;-74
2021/06/23 08:19:12;;;;;;;12.97;4.80;;;;;;;21.95;63.71;96743.09;3579259;39;20483;-76
2021/06/23 08:21:41;;;;;;;9.30;5.90;;;;;;;21.70;63.64;96739.72;3578948;40;20467;-74
2021/06/23 08:24:09;;;;;;;5.67;4.60;;;;;;;21.53;65.22;96730.94;3569982;39;20468;-74
2021/06/23 08:26:37;;;;;;;7.37;4.10;;;;;;;22.07;65.14;96739.06;3581792;39;20434;-73
2021/06/23 08:29:05;;;;;;;6.87;4.27;;;;;;;22.45;63.96;96738.41;3577716;39;20849;-74
2021/06/23 08:31:33;;;;;;;6.07;4.80;;;;;;;22.30;64.45;96733.78;3577762;39;20663;-73
2021/06/23 08:34:01;;;;;;;11.57;5.80;;;;;;;23.53;61.30;96723.97;3576961;39;20939;-74
2021/06/23 08:36:29;;;;;;;8.00;5.20;;;;;;;23.10;61.03;96729.88;3576425;39;20463;-73
2021/06/23 08:38:58;;;;;;;6.83;5.13;;;;;;;23.21;61.76;96727.81;3577974;39;20762;-73
2021/06/23 08:41:28;;;;;;;7.27;5.17;;;;;;;23.08;61.00;96731.91;3579095;39;20526;-74
2021/06/23 08:43:57;;;;;;;39.23;24.73;;;;;;;23.86;58.53;96735.13;3577908;39;20667;-73
2021/06/23 08:46:25;;;;;;;11.63;8.57;;;;;;;24.16;58.24;96723.56;3579153;39;20829;-73
2021/06/23 08:48:55;;;;;;;6.73;4.57;;;;;;;22.87;60.30;96726.41;3577326;39;20710;-73
2021/06/23 08:51:25;;;;;;;5.23;4.70;;;;;;;22.82;60.15;96728.78;3578908;39;20616;-74
2021/06/23 08:53:53;;;;;;;9.20;5.33;;;;;;;22.61;61.84;96732.94;3579680;39;20514;-74
2021/06/23 08:56:23;;;;;;;7.13;5.30;;;;;;;22.41;63.46;96727.25;3579631;39;20705;-74
2021/06/23 08:58:51;;;;;;;6.77;4.60;;;;;;;23.00;60.21;96720.47;3578298;39;20693;-74
2021/06/23 09:01:19;;;;;;;9.80;4.40;;;;;;;23.08;59.99;96723.09;3578267;39;20922;-75
2021/06/23 09:04:08;;;;;;;7.73;4.23;;;;;;;23.45;58.09;96721.38;3579196;39;20559;-74
2021/06/23 09:06:48;;;;;;;11.33;3.67;;;;;;;23.49;56.78;96722.69;3579303;39;20438;-73
2021/06/23 09:09:18;;;;;;;6.63;3.57;;;;;;;23.12;58.62;96712.88;3575518;39;20472;-74
2021/06/23 09:11:48;;;;;;;8.10;3.70;;;;;;;23.52;58.08;96698.22;3578767;39;20526;-74
2021/06/23 09:14:18;;;;;;;4.77;3.97;;;;;;;23.93;58.51;96713.00;3576869;39;20845;-74
2021/06/23 09:17:08;;;;;;;8.33;3.87;;;;;;;24.26;55.74;96710.72;3578727;39;20479;-74
2021/06/23 09:19:55;;;;;;;20.47;12.57;;;;;;;24.21;56.96;96691.75;3576423;39;21096;-74
2021/06/23 09:22:40;;;;;;;13.33;10.53;;;;;;;25.56;54.38;96706.09;3578045;39;20827;-75
2021/06/23 09:25:25;;;;;;;5.20;3.50;;;;;;;24.48;55.05;96695.50;3576939;39;20896;-75
2021/06/23 09:27:57;;;;;;;5.70;3.37;;;;;;;25.24;51.70;96701.16;3575243;40;20457;-73
2021/06/23 09:30:28;;;;;;;4.97;3.27;;;;;;;25.45;52.43;96705.63;3574692;39;20803;-75
2021/06/23 09:33:07;;;;;;;56.63;6.93;;;;;;;25.62;52.69;96705.31;3578146;39;20817;-73
2021/06/23 09:35:37;;;;;;;11.10;4.83;;;;;;;25.56;51.80;96698.03;3578351;39;20471;-74
2021/06/23 09:38:06;;;;;;;17.03;4.63;;;;;;;26.84;49.32;96706.38;3578018;40;20788;-75
2021/06/23 09:40:43;;;;;;;8.70;4.00;;;;;;;26.51;49.86;96695.56;3578983;39;20569;-74
2021/06/23 09:43:12;;;;;;;8.03;3.60;;;;;;;27.29;47.55;96700.41;3579863;39;20441;-74
2021/06/23 09:45:40;;;;;;;6.70;3.90;;;;;;;27.47;48.01;96699.75;3579710;39;20461;-74
2021/06/23 09:48:09;;;;;;;7.07;3.40;;;;;;;28.26;45.91;96697.84;3579426;39;21117;-75
2021/06/23 09:50:37;;;;;;;4.87;3.17;;;;;;;28.50;42.99;96699.78;3578866;39;20721;-74
2021/06/23 09:53:08;;;;;;;5.57;2.83;;;;;;;28.23;43.10;96701.78;3578153;40;20510;-73
2021/06/23 09:55:38;;;;;;;10.33;4.13;;;;;;;26.29;46.36;96708.31;3579828;39;20476;-74
2021/06/23 09:58:08;;;;;;;8.10;3.27;;;;;;;26.40;46.69;96696.97;3578989;40;20457;-75
2021/06/23 10:01:02;;;;;;;5.27;3.23;;;;;;;28.00;45.53;96695.03;3580313;39;20871;-74
2021/06/23 10:03:33;;;;;;;9.03;3.80;;;;;;;28.04;45.97;96691.94;3579080;40;21031;-75
2021/06/23 10:06:23;;;;;;;6.37;2.60;;;;;;;28.68;43.92;96696.38;3578491;39;20822;-75
2021/06/23 10:08:51;;;;;;;6.57;3.17;;;;;;;28.19;45.58;96693.31;3578997;39;20821;-75
2021/06/23 10:11:29;;;;;;;4.60;2.67;;;;;;;28.38;44.75;96693.41;3578411;39;20461;-75
2021/06/23 10:13:58;;;;;;;9.00;3.47;;;;;;;28.28;44.04;96684.97;3578774;39;20485;-75
2021/06/23 10:16:28;;;;;;;6.33;3.83;;;;;;;28.46;43.52;96686.94;3576264;40;20476;-74
2021/06/23 10:18:57;;;;;;;3.63;2.40;;;;;;;28.88;44.23;96696.22;3578012;39;20441;-74
2021/06/23 10:21:26;;;;;;;4.10;3.00;;;;;;;29.01;43.79;96689.06;3577498;39;20470;-74
2021/06/23 10:23:54;;;;;;;6.00;2.30;;;;;;;29.76;41.08;96692.53;3594410;39;20734;-74
2021/06/23 10:26:23;;;;;;;5.20;2.80;;;;;;;29.33;42.04;96687.16;3577950;39;20456;-74
2021/06/23 10:28:51;;;;;;;2.90;2.43;;;;;;;29.87;41.85;96684.72;3577120;39;20441;-74
2021/06/23 10:31:22;;;;;;;9.43;2.90;;;;;;;29.99;41.11;96669.44;3577382;39;20481;-74
2021/06/23 10:33:52;;;;;;;6.67;3.23;;;;;;;29.22;42.38;96669.81;3576620;39;20713;-74
2021/06/23 10:36:20;;;;;;;9.17;3.23;;;;;;;28.83;43.49;96676.38;3576893;39;20836;-74
2021/06/23 10:38:50;;;;;;;2.33;2.13;;;;;;;29.32;42.53;96658.53;3575579;39;20453;-75
2021/06/23 10:41:19;;;;;;;8.00;1.97;;;;;;;29.59;41.37;96664.47;3576210;40;20457;-74
2021/06/23 10:44:24;;;;;;;5.13;2.50;;;;;;;29.91;38.74;96669.72;3578084;39;20918;-74
2021/06/23 10:46:55;;;;;;;2.07;1.80;;;;;;;27.30;45.48;96662.53;3579488;40;20526;-74
2021/06/23 10:49:41;;;;;;;5.83;2.40;;;;;;;27.85;44.36;96674.81;3578257;39;20856;-74
2021/06/23 10:52:38;;;;;;;4.30;2.07;;;;;;;27.46;46.06;96665.81;3580295;40;20449;-74
2021/06/23 10:55:09;;;;;;;5.30;2.97;;;;;;;27.55;45.51;96672.63;3571631;39;20481;-74
2021/06/23 10:57:43;;;;;;;3.87;2.80;;;;;;;26.37;48.66;96676.72;3579651;39;20542;-74
2021/06/23 11:00:31;;;;;;;4.33;3.07;;;;;;;26.40;49.99;96678.19;3578514;39;20479;-74
2021/06/23 11:03:05;;;;;;;10.80;3.10;;;;;;;26.57;48.92;96679.44;3578586;39;20473;-74
2021/06/23 11:05:41;;;;;;;4.10;2.80;;;;;;;27.38;47.31;96681.16;3565770;39;20467;-73
2021/06/23 11:08:27;;;;;;;7.03;2.97;;;;;;;27.12;46.57;96681.97;3567411;40;20857;-73
2021/06/23 11:10:57;;;;;;;2.70;2.23;;;;;;;27.16;47.27;96690.44;3566381;40;20446;-73
2021/06/23 11:13:30;;;;;;;72.87;38.00;;;;;;;27.44;46.43;96684.03;3565620;40;20696;-74
2021/06/23 11:15:58;;;;;;;29.87;8.20;;;;;;;27.15;47.40;96675.38;3567059;39;20492;-73
2021/06/23 11:18:34;;;;;;;5.27;3.17;;;;;;;26.98;47.06;96686.53;3573918;40;20745;-74
2021/06/23 11:21:15;;;;;;;6.80;2.30;;;;;;;26.84;47.59;96684.88;3569038;40;20449;-73
2021/06/23 11:23:58;;;;;;;4.97;2.20;;;;;;;27.08;47.14;96679.91;3568080;39;20450;-74
2021/06/23 11:27:05;;;;;;;2.90;2.33;;;;;;;27.23;46.73;96678.66;3570584;40;20826;-73
2021/06/23 11:29:40;;;;;;;4.47;2.20;;;;;;;27.22;47.60;96674.31;3567106;39;20919;-73
2021/06/23 11:32:10;;;;;;;8.33;2.80;;;;;;;27.18;47.60;96681.13;3566039;40;21096;-74
2021/06/23 11:34:59;;;;;;;2.13;1.93;;;;;;;27.34;45.24;96685.28;3566879;40;20888;-74
2021/06/23 11:37:36;;;;;;;6.80;2.40;;;;;;;28.11;43.63;96685.50;3567227;40;20693;-74
2021/06/23 11:40:21;;;;;;;7.37;2.87;;;;;;;28.35;45.07;96672.31;3567988;39;20915;-74
2021/06/23 11:42:50;;;;;;;3.90;2.93;;;;;;;27.84;46.07;96667.78;3567870;40;20972;-74
2021/06/23 11:45:20;;;;;;;2.30;2.10;;;;;;;28.90;43.33;96669.88;3566634;39;20564;-75
2021/06/23 11:47:49;;;;;;;6.83;2.40;;;;;;;27.90;46.02;96666.97;3567977;40;20472;-74
2021/06/23 11:50:17;;;;;;;14.13;2.47;;;;;;;27.41;46.28;96659.22;3566695;39;20849;-74
2021/06/23 11:52:47;;;;;;;9.37;2.40;;;;;;;27.10;46.96;96657.16;3569625;40;20442;-74
2021/06/23 11:55:23;;;;;;;6.97;2.77;;;;;;;26.42;47.99;96644.75;3566112;39;20765;-74
2021/06/23 11:57:57;;;;;;;32.87;24.20;;;;;;;26.01;49.76;96664.47;3569255;40;20446;-75
2021/06/23 12:00:26;;;;;;;97.07;69.07;;;;;;;26.06;49.58;96669.22;3563801;39;20438;-75